sensor_id;sensor_type;location;lat;lon;timestamp;P1;durP1;ratioP1;P2;durP2;ratioP2
23608;SDS011;11982;50.810;4.442;2022-07-23T00:01:27;38.65;;;22.70;;
23608;SDS011;11982;50.810;4.442;2022-07-23T00:03:53;30.25;;;21.65;;
23608;SDS011;11982;50.810;4.442;2022-07-23T00:06:19;38.53;;;24.92;;
23608;SDS011;11982;50.810;4.442;2022-07-23T00:08:45;36.28;;;23.27;;
23608;SDS011;11982;50.810;4.442;2022-07-23T00:11:11;40.63;;;25.15;;
23608;SDS011;11982;50.810;4.442;2022-07-23T00:13:37;34.03;;;23.02;;
23608;SDS011;11982;50.810;4.442;2022-07-23T00:16:03;38.40;;;23.25;;
23608;SDS011;11982;50.810;4.442;2022-07-23T00:18:28;34.22;;;23.35;;
23608;SDS011;11982;50.810;4.442;2022-07-23T00:20:54;38.38;;;24.55;;
23608;SDS011;11982;50.810;4.442;2022-07-23T00:23:20;39.75;;;24.88;;
23608;SDS011;11982;50.810;4.442;2022-07-23T00:25:45;37.88;;;23.95;;
23608;SDS011;11982;50.810;4.442;2022-07-23T00:28:11;42.78;;;25.90;;
23608;SDS011;11982;50.810;4.442;2022-07-23T00:30:37;37.33;;;23.85;;
23608;SDS011;11982;50.810;4.442;2022-07-23T00:33:05;44.38;;;24.55;;
23608;SDS011;11982;50.810;4.442;2022-07-23T00:35:33;39.78;;;24.05;;
23608;SDS011;11982;50.810;4.442;2022-07-23T00:38:00;37.58;;;25.05;;
23608;SDS011;11982;50.810;4.442;2022-07-23T00:40:27;38.80;;;24.13;;
23608;SDS011;11982;50.810;4.442;2022-07-23T00:42:54;37.72;;;23.65;;
23608;SDS011;11982;50.810;4.442;2022-07-23T00:45:19;40.70;;;25.55;;
23608;SDS011;11982;50.810;4.442;2022-07-23T00:47:45;42.88;;;26.05;;
23608;SDS011;11982;50.810;4.442;2022-07-23T00:50:12;42.63;;;24.50;;
23608;SDS011;11982;50.810;4.442;2022-07-23T00:52:38;44.20;;;26.63;;
23608;SDS011;11982;50.810;4.442;2022-07-23T00:55:05;37.95;;;26.38;;
23608;SDS011;11982;50.810;4.442;2022-07-23T00:57:32;46.58;;;28.40;;
23608;SDS011;11982;50.810;4.442;2022-07-23T00:59:58;43.08;;;26.98;;
23608;SDS011;11982;50.810;4.442;2022-07-23T01:02:24;44.45;;;26.17;;
23608;SDS011;11982;50.810;4.442;2022-07-23T01:04:51;42.92;;;25.48;;
23608;SDS011;11982;50.810;4.442;2022-07-23T01:07:16;42.83;;;26.75;;
23608;SDS011;11982;50.810;4.442;2022-07-23T01:09:43;44.20;;;26.92;;
23608;SDS011;11982;50.810;4.442;2022-07-23T01:12:10;41.47;;;26.10;;
23608;SDS011;11982;50.810;4.442;2022-07-23T01:14:35;41.35;;;25.55;;
23608;SDS011;11982;50.810;4.442;2022-07-23T01:17:01;39.88;;;24.80;;
23608;SDS011;11982;50.810;4.442;2022-07-23T01:19:27;41.13;;;23.88;;
23608;SDS011;11982;50.810;4.442;2022-07-23T01:21:53;48.20;;;28.48;;
23608;SDS011;11982;50.810;4.442;2022-07-23T01:24:21;42.92;;;27.33;;
23608;SDS011;11982;50.810;4.442;2022-07-23T01:26:48;42.95;;;26.63;;
23608;SDS011;11982;50.810;4.442;2022-07-23T01:29:14;50.03;;;28.45;;
23608;SDS011;11982;50.810;4.442;2022-07-23T01:31:41;53.45;;;30.15;;
23608;SDS011;11982;50.810;4.442;2022-07-23T01:34:07;47.90;;;28.77;;
23608;SDS011;11982;50.810;4.442;2022-07-23T01:36:34;47.03;;;28.77;;
23608;SDS011;11982;50.810;4.442;2022-07-23T01:39:00;44.15;;;27.90;;
23608;SDS011;11982;50.810;4.442;2022-07-23T01:41:26;44.30;;;28.08;;
23608;SDS011;11982;50.810;4.442;2022-07-23T01:43:52;44.15;;;28.23;;
23608;SDS011;11982;50.810;4.442;2022-07-23T01:46:17;47.80;;;28.52;;
23608;SDS011;11982;50.810;4.442;2022-07-23T01:48:43;47.47;;;29.40;;
23608;SDS011;11982;50.810;4.442;2022-07-23T01:51:08;44.15;;;28.15;;
23608;SDS011;11982;50.810;4.442;2022-07-23T01:53:34;45.58;;;29.60;;
23608;SDS011;11982;50.810;4.442;2022-07-23T01:56:00;47.65;;;29.17;;
23608;SDS011;11982;50.810;4.442;2022-07-23T01:58:26;49.55;;;30.23;;
23608;SDS011;11982;50.810;4.442;2022-07-23T02:00:52;42.38;;;28.23;;
23608;SDS011;11982;50.810;4.442;2022-07-23T02:03:18;45.03;;;27.20;;
23608;SDS011;11982;50.810;4.442;2022-07-23T02:05:44;40.35;;;26.98;;
23608;SDS011;11982;50.810;4.442;2022-07-23T02:08:10;46.00;;;27.92;;
23608;SDS011;11982;50.810;4.442;2022-07-23T02:10:35;46.38;;;29.20;;
23608;SDS011;11982;50.810;4.442;2022-07-23T02:13:01;45.05;;;27.73;;
23608;SDS011;11982;50.810;4.442;2022-07-23T02:15:27;48.28;;;28.42;;
23608;SDS011;11982;50.810;4.442;2022-07-23T02:17:53;44.70;;;27.20;;
23608;SDS011;11982;50.810;4.442;2022-07-23T02:20:19;45.20;;;28.52;;
23608;SDS011;11982;50.810;4.442;2022-07-23T02:22:45;44.10;;;27.50;;
23608;SDS011;11982;50.810;4.442;2022-07-23T02:25:10;39.45;;;26.85;;
23608;SDS011;11982;50.810;4.442;2022-07-23T02:27:36;42.78;;;26.85;;
23608;SDS011;11982;50.810;4.442;2022-07-23T02:30:02;47.22;;;28.10;;
23608;SDS011;11982;50.810;4.442;2022-07-23T02:32:28;39.50;;;26.42;;
23608;SDS011;11982;50.810;4.442;2022-07-23T02:34:54;37.65;;;26.50;;
23608;SDS011;11982;50.810;4.442;2022-07-23T02:37:19;44.47;;;28.08;;
23608;SDS011;11982;50.810;4.442;2022-07-23T02:39:46;49.60;;;29.65;;
23608;SDS011;11982;50.810;4.442;2022-07-23T02:42:13;50.90;;;29.85;;
23608;SDS011;11982;50.810;4.442;2022-07-23T02:44:39;54.05;;;30.40;;
23608;SDS011;11982;50.810;4.442;2022-07-23T02:47:05;53.80;;;30.40;;
23608;SDS011;11982;50.810;4.442;2022-07-23T02:49:30;52.03;;;29.05;;
23608;SDS011;11982;50.810;4.442;2022-07-23T02:51:56;45.83;;;28.15;;
23608;SDS011;11982;50.810;4.442;2022-07-23T02:54:22;46.65;;;28.45;;
23608;SDS011;11982;50.810;4.442;2022-07-23T02:56:47;47.10;;;29.08;;
23608;SDS011;11982;50.810;4.442;2022-07-23T02:59:13;51.53;;;28.70;;
23608;SDS011;11982;50.810;4.442;2022-07-23T03:01:38;42.30;;;25.92;;
23608;SDS011;11982;50.810;4.442;2022-07-23T03:04:04;41.53;;;26.95;;
23608;SDS011;11982;50.810;4.442;2022-07-23T03:06:30;48.67;;;28.27;;
23608;SDS011;11982;50.810;4.442;2022-07-23T03:08:55;45.08;;;27.38;;
23608;SDS011;11982;50.810;4.442;2022-07-23T03:11:21;45.85;;;27.45;;
23608;SDS011;11982;50.810;4.442;2022-07-23T03:13:46;43.10;;;26.15;;
23608;SDS011;11982;50.810;4.442;2022-07-23T03:16:12;44.35;;;26.85;;
23608;SDS011;11982;50.810;4.442;2022-07-23T03:18:37;46.70;;;27.10;;
23608;SDS011;11982;50.810;4.442;2022-07-23T03:21:03;43.05;;;26.92;;
23608;SDS011;11982;50.810;4.442;2022-07-23T03:23:29;40.45;;;25.02;;
23608;SDS011;11982;50.810;4.442;2022-07-23T03:25:55;39.53;;;25.05;;
23608;SDS011;11982;50.810;4.442;2022-07-23T03:28:20;38.22;;;24.90;;
23608;SDS011;11982;50.810;4.442;2022-07-23T03:30:46;43.90;;;27.27;;
23608;SDS011;11982;50.810;4.442;2022-07-23T03:33:13;38.28;;;25.95;;
23608;SDS011;11982;50.810;4.442;2022-07-23T03:35:39;39.45;;;24.42;;
23608;SDS011;11982;50.810;4.442;2022-07-23T03:38:05;46.33;;;27.45;;
23608;SDS011;11982;50.810;4.442;2022-07-23T03:40:31;42.38;;;26.23;;
23608;SDS011;11982;50.810;4.442;2022-07-23T03:42:56;43.13;;;27.33;;
23608;SDS011;11982;50.810;4.442;2022-07-23T03:45:22;45.20;;;26.65;;
23608;SDS011;11982;50.810;4.442;2022-07-23T03:47:48;46.25;;;26.55;;
23608;SDS011;11982;50.810;4.442;2022-07-23T03:50:13;47.17;;;26.83;;
23608;SDS011;11982;50.810;4.442;2022-07-23T03:52:39;45.85;;;27.00;;
23608;SDS011;11982;50.810;4.442;2022-07-23T03:55:05;43.33;;;26.05;;
23608;SDS011;11982;50.810;4.442;2022-07-23T03:57:31;46.28;;;25.30;;
23608;SDS011;11982;50.810;4.442;2022-07-23T03:59:56;39.78;;;24.33;;
23608;SDS011;11982;50.810;4.442;2022-07-23T04:02:22;43.10;;;25.52;;
23608;SDS011;11982;50.810;4.442;2022-07-23T04:04:48;40.90;;;24.73;;
23608;SDS011;11982;50.810;4.442;2022-07-23T04:07:14;36.53;;;24.23;;
23608;SDS011;11982;50.810;4.442;2022-07-23T04:09:39;43.80;;;24.77;;
23608;SDS011;11982;50.810;4.442;2022-07-23T04:12:05;43.92;;;26.25;;
23608;SDS011;11982;50.810;4.442;2022-07-23T04:14:32;39.95;;;25.70;;
23608;SDS011;11982;50.810;4.442;2022-07-23T04:16:58;39.67;;;24.98;;
23608;SDS011;11982;50.810;4.442;2022-07-23T04:19:24;41.28;;;26.20;;
23608;SDS011;11982;50.810;4.442;2022-07-23T04:21:50;39.55;;;25.05;;
23608;SDS011;11982;50.810;4.442;2022-07-23T04:24:15;38.42;;;24.70;;
23608;SDS011;11982;50.810;4.442;2022-07-23T04:26:41;35.30;;;23.60;;
23608;SDS011;11982;50.810;4.442;2022-07-23T04:29:07;37.13;;;23.83;;
23608;SDS011;11982;50.810;4.442;2022-07-23T04:31:32;35.25;;;23.95;;
23608;SDS011;11982;50.810;4.442;2022-07-23T04:33:58;36.95;;;23.75;;
23608;SDS011;11982;50.810;4.442;2022-07-23T04:36:24;35.63;;;23.23;;
23608;SDS011;11982;50.810;4.442;2022-07-23T04:38:49;37.88;;;24.33;;
23608;SDS011;11982;50.810;4.442;2022-07-23T04:41:15;36.92;;;23.90;;
23608;SDS011;11982;50.810;4.442;2022-07-23T04:43:40;36.67;;;23.27;;
23608;SDS011;11982;50.810;4.442;2022-07-23T04:46:06;32.42;;;21.10;;
23608;SDS011;11982;50.810;4.442;2022-07-23T04:48:32;33.38;;;22.20;;
23608;SDS011;11982;50.810;4.442;2022-07-23T04:50:57;31.45;;;21.83;;
23608;SDS011;11982;50.810;4.442;2022-07-23T04:53:23;34.92;;;22.30;;
23608;SDS011;11982;50.810;4.442;2022-07-23T04:55:49;30.65;;;22.30;;
23608;SDS011;11982;50.810;4.442;2022-07-23T04:58:14;29.02;;;22.05;;
23608;SDS011;11982;50.810;4.442;2022-07-23T05:00:40;33.33;;;22.67;;
23608;SDS011;11982;50.810;4.442;2022-07-23T05:03:06;30.55;;;22.00;;
23608;SDS011;11982;50.810;4.442;2022-07-23T05:05:31;31.90;;;23.00;;
23608;SDS011;11982;50.810;4.442;2022-07-23T05:07:57;30.25;;;20.35;;
23608;SDS011;11982;50.810;4.442;2022-07-23T05:10:23;32.08;;;20.83;;
23608;SDS011;11982;50.810;4.442;2022-07-23T05:12:48;26.83;;;20.95;;
23608;SDS011;11982;50.810;4.442;2022-07-23T05:15:14;31.52;;;20.85;;
23608;SDS011;11982;50.810;4.442;2022-07-23T05:17:39;26.52;;;20.77;;
23608;SDS011;11982;50.810;4.442;2022-07-23T05:20:05;26.23;;;18.88;;
23608;SDS011;11982;50.810;4.442;2022-07-23T05:22:31;26.17;;;18.25;;
23608;SDS011;11982;50.810;4.442;2022-07-23T05:24:57;27.50;;;20.02;;
23608;SDS011;11982;50.810;4.442;2022-07-23T05:27:22;28.77;;;20.67;;
23608;SDS011;11982;50.810;4.442;2022-07-23T05:29:48;27.70;;;19.40;;
23608;SDS011;11982;50.810;4.442;2022-07-23T05:32:14;29.70;;;21.50;;
23608;SDS011;11982;50.810;4.442;2022-07-23T05:34:40;25.92;;;19.70;;
23608;SDS011;11982;50.810;4.442;2022-07-23T05:37:05;26.38;;;19.58;;
23608;SDS011;11982;50.810;4.442;2022-07-23T05:39:31;28.33;;;20.65;;
23608;SDS011;11982;50.810;4.442;2022-07-23T05:41:57;28.67;;;19.77;;
23608;SDS011;11982;50.810;4.442;2022-07-23T05:44:22;30.00;;;20.45;;
23608;SDS011;11982;50.810;4.442;2022-07-23T05:46:48;26.67;;;20.73;;
23608;SDS011;11982;50.810;4.442;2022-07-23T05:49:14;30.55;;;20.83;;
23608;SDS011;11982;50.810;4.442;2022-07-23T05:51:39;28.23;;;21.40;;
23608;SDS011;11982;50.810;4.442;2022-07-23T05:54:05;29.35;;;20.70;;
23608;SDS011;11982;50.810;4.442;2022-07-23T05:56:30;25.65;;;20.70;;
23608;SDS011;11982;50.810;4.442;2022-07-23T05:58:56;27.42;;;20.85;;
23608;SDS011;11982;50.810;4.442;2022-07-23T06:01:22;27.77;;;20.60;;
23608;SDS011;11982;50.810;4.442;2022-07-23T06:03:48;29.35;;;20.85;;
23608;SDS011;11982;50.810;4.442;2022-07-23T06:06:13;27.67;;;20.45;;
23608;SDS011;11982;50.810;4.442;2022-07-23T06:08:39;27.65;;;20.80;;
23608;SDS011;11982;50.810;4.442;2022-07-23T06:11:05;33.33;;;22.70;;
23608;SDS011;11982;50.810;4.442;2022-07-23T06:13:30;31.20;;;20.90;;
23608;SDS011;11982;50.810;4.442;2022-07-23T06:15:56;29.27;;;22.08;;
23608;SDS011;11982;50.810;4.442;2022-07-23T06:18:21;34.47;;;22.65;;
23608;SDS011;11982;50.810;4.442;2022-07-23T06:20:47;30.80;;;20.92;;
23608;SDS011;11982;50.810;4.442;2022-07-23T06:23:13;27.45;;;21.45;;
23608;SDS011;11982;50.810;4.442;2022-07-23T06:25:38;32.92;;;23.58;;
23608;SDS011;11982;50.810;4.442;2022-07-23T06:28:04;30.75;;;22.65;;
23608;SDS011;11982;50.810;4.442;2022-07-23T06:30:30;34.58;;;23.58;;
23608;SDS011;11982;50.810;4.442;2022-07-23T06:32:55;30.45;;;22.00;;
23608;SDS011;11982;50.810;4.442;2022-07-23T06:35:21;29.40;;;19.98;;
23608;SDS011;11982;50.810;4.442;2022-07-23T06:37:46;27.48;;;19.85;;
23608;SDS011;11982;50.810;4.442;2022-07-23T06:40:12;26.35;;;20.70;;
23608;SDS011;11982;50.810;4.442;2022-07-23T06:42:38;23.45;;;18.98;;
23608;SDS011;11982;50.810;4.442;2022-07-23T06:45:04;25.73;;;19.52;;
23608;SDS011;11982;50.810;4.442;2022-07-23T06:47:31;26.42;;;19.92;;
23608;SDS011;11982;50.810;4.442;2022-07-23T06:49:57;27.92;;;19.98;;
23608;SDS011;11982;50.810;4.442;2022-07-23T06:52:23;26.40;;;18.92;;
23608;SDS011;11982;50.810;4.442;2022-07-23T06:54:49;28.70;;;18.63;;
23608;SDS011;11982;50.810;4.442;2022-07-23T06:57:14;23.40;;;17.88;;
23608;SDS011;11982;50.810;4.442;2022-07-23T06:59:40;26.02;;;19.20;;
23608;SDS011;11982;50.810;4.442;2022-07-23T07:02:06;22.15;;;17.58;;
23608;SDS011;11982;50.810;4.442;2022-07-23T07:04:33;28.50;;;19.40;;
23608;SDS011;11982;50.810;4.442;2022-07-23T07:06:59;29.13;;;19.85;;
23608;SDS011;11982;50.810;4.442;2022-07-23T07:09:24;25.88;;;19.05;;
23608;SDS011;11982;50.810;4.442;2022-07-23T07:11:50;28.15;;;19.02;;
23608;SDS011;11982;50.810;4.442;2022-07-23T07:14:16;26.42;;;18.48;;
23608;SDS011;11982;50.810;4.442;2022-07-23T07:16:41;23.80;;;18.10;;
23608;SDS011;11982;50.810;4.442;2022-07-23T07:19:07;24.60;;;17.75;;
23608;SDS011;11982;50.810;4.442;2022-07-23T07:21:32;24.63;;;17.35;;
23608;SDS011;11982;50.810;4.442;2022-07-23T07:23:58;22.80;;;17.67;;
23608;SDS011;11982;50.810;4.442;2022-07-23T07:26:24;24.70;;;18.95;;
23608;SDS011;11982;50.810;4.442;2022-07-23T07:28:50;26.98;;;17.50;;
23608;SDS011;11982;50.810;4.442;2022-07-23T07:31:16;28.90;;;20.13;;
23608;SDS011;11982;50.810;4.442;2022-07-23T07:33:42;23.40;;;17.95;;
23608;SDS011;11982;50.810;4.442;2022-07-23T07:36:08;24.25;;;18.40;;
23608;SDS011;11982;50.810;4.442;2022-07-23T07:38:33;25.63;;;18.85;;
23608;SDS011;11982;50.810;4.442;2022-07-23T07:40:59;30.90;;;17.58;;
23608;SDS011;11982;50.810;4.442;2022-07-23T07:43:25;26.40;;;17.60;;
23608;SDS011;11982;50.810;4.442;2022-07-23T07:45:50;25.70;;;18.05;;
23608;SDS011;11982;50.810;4.442;2022-07-23T07:48:16;23.48;;;17.73;;
23608;SDS011;11982;50.810;4.442;2022-07-23T07:50:41;27.52;;;18.30;;
23608;SDS011;11982;50.810;4.442;2022-07-23T07:53:07;22.60;;;16.85;;
23608;SDS011;11982;50.810;4.442;2022-07-23T07:55:33;24.10;;;16.95;;
23608;SDS011;11982;50.810;4.442;2022-07-23T07:57:59;23.20;;;15.18;;
23608;SDS011;11982;50.810;4.442;2022-07-23T08:00:25;27.05;;;18.80;;
23608;SDS011;11982;50.810;4.442;2022-07-23T08:02:51;25.00;;;17.73;;
23608;SDS011;11982;50.810;4.442;2022-07-23T08:05:19;29.15;;;16.73;;
23608;SDS011;11982;50.810;4.442;2022-07-23T08:07:46;20.40;;;15.23;;
23608;SDS011;11982;50.810;4.442;2022-07-23T08:10:12;23.55;;;16.98;;
23608;SDS011;11982;50.810;4.442;2022-07-23T08:12:41;23.02;;;16.33;;
23608;SDS011;11982;50.810;4.442;2022-07-23T08:15:09;21.08;;;15.65;;
23608;SDS011;11982;50.810;4.442;2022-07-23T08:17:36;21.88;;;15.55;;
23608;SDS011;11982;50.810;4.442;2022-07-23T08:20:03;18.67;;;14.15;;
23608;SDS011;11982;50.810;4.442;2022-07-23T08:25:21;22.88;;;15.65;;
23608;SDS011;11982;50.810;4.442;2022-07-23T08:27:48;28.15;;;13.98;;
23608;SDS011;11982;50.810;4.442;2022-07-23T08:30:14;22.25;;;14.02;;
23608;SDS011;11982;50.810;4.442;2022-07-23T08:32:55;21.23;;;14.95;;
23608;SDS011;11982;50.810;4.442;2022-07-23T08:35:23;18.88;;;13.45;;
23608;SDS011;11982;50.810;4.442;2022-07-23T08:37:50;23.65;;;14.05;;
23608;SDS011;11982;50.810;4.442;2022-07-23T08:40:16;20.85;;;15.10;;
23608;SDS011;11982;50.810;4.442;2022-07-23T08:42:42;20.95;;;13.88;;
23608;SDS011;11982;50.810;4.442;2022-07-23T08:45:09;20.85;;;13.23;;
23608;SDS011;11982;50.810;4.442;2022-07-23T08:47:37;21.92;;;13.88;;
23608;SDS011;11982;50.810;4.442;2022-07-23T08:50:03;18.58;;;12.80;;
23608;SDS011;11982;50.810;4.442;2022-07-23T08:52:30;21.77;;;14.00;;
23608;SDS011;11982;50.810;4.442;2022-07-23T08:54:56;19.67;;;13.63;;
23608;SDS011;11982;50.810;4.442;2022-07-23T08:57:22;23.25;;;14.30;;
23608;SDS011;11982;50.810;4.442;2022-07-23T08:59:48;20.35;;;14.25;;
23608;SDS011;11982;50.810;4.442;2022-07-23T09:02:13;23.35;;;14.10;;
23608;SDS011;11982;50.810;4.442;2022-07-23T09:04:39;21.42;;;13.35;;
23608;SDS011;11982;50.810;4.442;2022-07-23T09:07:05;18.90;;;13.80;;
23608;SDS011;11982;50.810;4.442;2022-07-23T09:09:30;22.45;;;12.95;;
23608;SDS011;11982;50.810;4.442;2022-07-23T09:12:29;19.27;;;11.45;;
23608;SDS011;11982;50.810;4.442;2022-07-23T09:14:50;19.35;;;11.15;;
23608;SDS011;11982;50.810;4.442;2022-07-23T09:17:17;22.02;;;11.27;;
23608;SDS011;11982;50.810;4.442;2022-07-23T09:19:43;17.77;;;12.38;;
23608;SDS011;11982;50.810;4.442;2022-07-23T09:22:23;14.68;;;9.88;;
23608;SDS011;11982;50.810;4.442;2022-07-23T09:27:47;13.75;;;9.60;;
23608;SDS011;11982;50.810;4.442;2022-07-23T09:30:13;15.63;;;10.07;;
23608;SDS011;11982;50.810;4.442;2022-07-23T09:32:39;15.45;;;9.93;;
23608;SDS011;11982;50.810;4.442;2022-07-23T09:35:05;17.08;;;9.20;;
23608;SDS011;11982;50.810;4.442;2022-07-23T09:37:32;18.23;;;11.07;;
23608;SDS011;11982;50.810;4.442;2022-07-23T09:40:05;12.88;;;9.75;;
23608;SDS011;11982;50.810;4.442;2022-07-23T09:42:33;15.93;;;10.35;;
23608;SDS011;11982;50.810;4.442;2022-07-23T09:44:59;14.10;;;9.68;;
23608;SDS011;11982;50.810;4.442;2022-07-23T09:47:26;14.20;;;9.02;;
23608;SDS011;11982;50.810;4.442;2022-07-23T09:49:58;13.23;;;8.27;;
23608;SDS011;11982;50.810;4.442;2022-07-23T09:52:28;12.20;;;8.70;;
23608;SDS011;11982;50.810;4.442;2022-07-23T09:54:58;10.50;;;8.02;;
23608;SDS011;11982;50.810;4.442;2022-07-23T09:57:25;12.90;;;8.07;;
23608;SDS011;11982;50.810;4.442;2022-07-23T09:59:51;12.35;;;7.60;;
23608;SDS011;11982;50.810;4.442;2022-07-23T10:02:18;9.75;;;5.88;;
23608;SDS011;11982;50.810;4.442;2022-07-23T10:04:43;9.68;;;5.35;;
23608;SDS011;11982;50.810;4.442;2022-07-23T10:07:09;8.80;;;5.82;;
23608;SDS011;11982;50.810;4.442;2022-07-23T10:09:37;8.02;;;5.03;;
23608;SDS011;11982;50.810;4.442;2022-07-23T10:12:05;7.40;;;5.00;;
23608;SDS011;11982;50.810;4.442;2022-07-23T10:14:45;10.98;;;6.45;;
23608;SDS011;11982;50.810;4.442;2022-07-23T10:17:12;9.40;;;6.40;;
23608;SDS011;11982;50.810;4.442;2022-07-23T10:19:38;11.27;;;6.72;;
23608;SDS011;11982;50.810;4.442;2022-07-23T10:22:06;8.20;;;5.57;;
23608;SDS011;11982;50.810;4.442;2022-07-23T10:24:40;6.57;;;4.50;;
23608;SDS011;11982;50.810;4.442;2022-07-23T10:27:49;8.57;;;4.72;;
23608;SDS011;11982;50.810;4.442;2022-07-23T10:41:14;4.22;;;3.50;;
23608;SDS011;11982;50.810;4.442;2022-07-23T10:44:13;4.57;;;2.95;;
23608;SDS011;11982;50.810;4.442;2022-07-23T10:46:54;9.73;;;4.70;;
23608;SDS011;11982;50.810;4.442;2022-07-23T10:49:43;6.70;;;4.93;;
23608;SDS011;11982;50.810;4.442;2022-07-23T10:57:16;6.78;;;4.32;;
23608;SDS011;11982;50.810;4.442;2022-07-23T11:02:40;4.57;;;3.83;;
23608;SDS011;11982;50.810;4.442;2022-07-23T11:05:11;8.40;;;3.70;;
23608;SDS011;11982;50.810;4.442;2022-07-23T11:08:25;7.95;;;3.92;;
23608;SDS011;11982;50.810;4.442;2022-07-23T11:10:31;5.88;;;3.40;;
23608;SDS011;11982;50.810;4.442;2022-07-23T11:32:02;6.22;;;4.00;;
23608;SDS011;11982;50.810;4.442;2022-07-23T11:34:34;5.50;;;3.63;;
23608;SDS011;11982;50.810;4.442;2022-07-23T11:37:03;6.82;;;4.10;;
23608;SDS011;11982;50.810;4.442;2022-07-23T11:39:30;6.03;;;3.72;;
23608;SDS011;11982;50.810;4.442;2022-07-23T11:41:57;4.75;;;3.40;;
23608;SDS011;11982;50.810;4.442;2022-07-23T11:47:07;6.22;;;4.40;;
23608;SDS011;11982;50.810;4.442;2022-07-23T11:49:34;6.68;;;4.35;;
23608;SDS011;11982;50.810;4.442;2022-07-23T11:52:07;5.40;;;3.53;;
23608;SDS011;11982;50.810;4.442;2022-07-23T11:54:35;6.53;;;3.95;;
23608;SDS011;11982;50.810;4.442;2022-07-23T11:57:02;6.15;;;3.63;;
23608;SDS011;11982;50.810;4.442;2022-07-23T11:59:30;5.88;;;3.85;;
23608;SDS011;11982;50.810;4.442;2022-07-23T12:01:58;6.65;;;4.60;;
23608;SDS011;11982;50.810;4.442;2022-07-23T12:04:25;5.75;;;4.00;;
23608;SDS011;11982;50.810;4.442;2022-07-23T12:07:02;4.85;;;3.05;;
23608;SDS011;11982;50.810;4.442;2022-07-23T12:09:28;6.75;;;3.75;;
23608;SDS011;11982;50.810;4.442;2022-07-23T12:11:59;4.85;;;3.45;;
23608;SDS011;11982;50.810;4.442;2022-07-23T12:14:26;5.88;;;3.63;;
23608;SDS011;11982;50.810;4.442;2022-07-23T12:17:10;6.20;;;4.13;;
23608;SDS011;11982;50.810;4.442;2022-07-23T12:19:35;7.03;;;4.13;;
23608;SDS011;11982;50.810;4.442;2022-07-23T12:22:01;6.45;;;3.70;;
23608;SDS011;11982;50.810;4.442;2022-07-23T12:24:27;4.63;;;3.47;;
23608;SDS011;11982;50.810;4.442;2022-07-23T12:27:11;6.57;;;4.32;;
23608;SDS011;11982;50.810;4.442;2022-07-23T12:29:38;7.45;;;4.28;;
23608;SDS011;11982;50.810;4.442;2022-07-23T12:35:01;7.70;;;4.70;;
23608;SDS011;11982;50.810;4.442;2022-07-23T12:37:33;6.03;;;4.13;;
23608;SDS011;11982;50.810;4.442;2022-07-23T12:43:06;5.57;;;4.47;;
23608;SDS011;11982;50.810;4.442;2022-07-23T12:48:35;4.13;;;3.80;;
23608;SDS011;11982;50.810;4.442;2022-07-23T12:51:08;8.25;;;4.68;;
23608;SDS011;11982;50.810;4.442;2022-07-23T12:56:10;6.85;;;4.55;;
23608;SDS011;11982;50.810;4.442;2022-07-23T13:01:33;5.93;;;4.80;;
23608;SDS011;11982;50.810;4.442;2022-07-23T13:06:39;6.03;;;4.72;;
23608;SDS011;11982;50.810;4.442;2022-07-23T13:09:06;7.97;;;4.63;;
23608;SDS011;11982;50.810;4.442;2022-07-23T13:11:33;9.70;;;4.63;;
23608;SDS011;11982;50.810;4.442;2022-07-23T13:13:59;5.75;;;4.65;;
23608;SDS011;11982;50.810;4.442;2022-07-23T13:16:28;4.07;;;3.67;;
23608;SDS011;11982;50.810;4.442;2022-07-23T13:18:54;4.40;;;4.00;;
23608;SDS011;11982;50.810;4.442;2022-07-23T13:21:21;7.78;;;4.30;;
23608;SDS011;11982;50.810;4.442;2022-07-23T13:23:47;8.75;;;5.95;;
23608;SDS011;11982;50.810;4.442;2022-07-23T13:26:13;10.52;;;7.28;;
23608;SDS011;11982;50.810;4.442;2022-07-23T13:28:39;6.47;;;4.97;;
23608;SDS011;11982;50.810;4.442;2022-07-23T13:31:05;10.00;;;7.20;;
23608;SDS011;11982;50.810;4.442;2022-07-23T13:33:30;7.53;;;5.38;;
23608;SDS011;11982;50.810;4.442;2022-07-23T13:35:56;13.52;;;9.43;;
23608;SDS011;11982;50.810;4.442;2022-07-23T13:38:22;11.77;;;7.68;;
23608;SDS011;11982;50.810;4.442;2022-07-23T13:40:49;10.55;;;5.93;;
23608;SDS011;11982;50.810;4.442;2022-07-23T13:43:17;6.78;;;5.18;;
23608;SDS011;11982;50.810;4.442;2022-07-23T13:45:44;7.05;;;5.63;;
23608;SDS011;11982;50.810;4.442;2022-07-23T13:48:11;7.60;;;5.10;;
23608;SDS011;11982;50.810;4.442;2022-07-23T13:50:38;7.55;;;5.65;;
23608;SDS011;11982;50.810;4.442;2022-07-23T13:53:06;9.70;;;5.85;;
23608;SDS011;11982;50.810;4.442;2022-07-23T13:55:34;8.48;;;6.80;;
23608;SDS011;11982;50.810;4.442;2022-07-23T13:58:01;13.10;;;6.53;;
23608;SDS011;11982;50.810;4.442;2022-07-23T14:00:27;6.45;;;5.13;;
23608;SDS011;11982;50.810;4.442;2022-07-23T14:02:53;8.02;;;5.72;;
23608;SDS011;11982;50.810;4.442;2022-07-23T14:05:19;11.88;;;5.10;;
23608;SDS011;11982;50.810;4.442;2022-07-23T14:07:45;6.15;;;5.05;;
23608;SDS011;11982;50.810;4.442;2022-07-23T14:10:12;6.60;;;4.95;;
23608;SDS011;11982;50.810;4.442;2022-07-23T14:12:38;5.88;;;4.65;;
23608;SDS011;11982;50.810;4.442;2022-07-23T14:15:05;5.00;;;4.50;;
23608;SDS011;11982;50.810;4.442;2022-07-23T14:17:33;6.55;;;4.05;;
23608;SDS011;11982;50.810;4.442;2022-07-23T14:19:59;6.13;;;4.50;;
23608;SDS011;11982;50.810;4.442;2022-07-23T14:22:25;8.20;;;5.13;;
23608;SDS011;11982;50.810;4.442;2022-07-23T14:24:50;7.60;;;4.88;;
23608;SDS011;11982;50.810;4.442;2022-07-23T14:27:16;6.95;;;5.40;;
23608;SDS011;11982;50.810;4.442;2022-07-23T14:29:42;5.43;;;4.85;;
23608;SDS011;11982;50.810;4.442;2022-07-23T14:32:08;6.55;;;5.00;;
23608;SDS011;11982;50.810;4.442;2022-07-23T14:34:34;6.00;;;5.20;;
23608;SDS011;11982;50.810;4.442;2022-07-23T14:37:00;6.10;;;5.07;;
23608;SDS011;11982;50.810;4.442;2022-07-23T14:39:26;7.32;;;5.00;;
23608;SDS011;11982;50.810;4.442;2022-07-23T14:41:52;8.30;;;6.10;;
23608;SDS011;11982;50.810;4.442;2022-07-23T14:44:18;7.57;;;5.57;;
23608;SDS011;11982;50.810;4.442;2022-07-23T14:46:44;8.68;;;5.43;;
23608;SDS011;11982;50.810;4.442;2022-07-23T14:49:09;5.97;;;5.25;;
23608;SDS011;11982;50.810;4.442;2022-07-23T14:51:35;6.43;;;5.57;;
23608;SDS011;11982;50.810;4.442;2022-07-23T14:54:01;8.70;;;5.15;;
23608;SDS011;11982;50.810;4.442;2022-07-23T14:56:28;6.50;;;4.85;;
23608;SDS011;11982;50.810;4.442;2022-07-23T14:58:54;6.18;;;5.57;;
23608;SDS011;11982;50.810;4.442;2022-07-23T15:01:21;6.70;;;5.28;;
23608;SDS011;11982;50.810;4.442;2022-07-23T15:03:48;6.63;;;5.72;;
23608;SDS011;11982;50.810;4.442;2022-07-23T15:06:15;6.50;;;5.47;;
23608;SDS011;11982;50.810;4.442;2022-07-23T15:08:41;8.95;;;6.10;;
23608;SDS011;11982;50.810;4.442;2022-07-23T15:11:06;8.30;;;5.40;;
23608;SDS011;11982;50.810;4.442;2022-07-23T15:13:34;7.18;;;5.53;;
23608;SDS011;11982;50.810;4.442;2022-07-23T15:16:00;9.80;;;5.97;;
23608;SDS011;11982;50.810;4.442;2022-07-23T15:18:26;6.63;;;5.50;;
23608;SDS011;11982;50.810;4.442;2022-07-23T15:20:52;6.85;;;5.30;;
23608;SDS011;11982;50.810;4.442;2022-07-23T15:23:17;11.07;;;5.50;;
23608;SDS011;11982;50.810;4.442;2022-07-23T15:25:43;6.18;;;5.57;;
23608;SDS011;11982;50.810;4.442;2022-07-23T15:28:08;7.97;;;6.13;;
23608;SDS011;11982;50.810;4.442;2022-07-23T15:30:34;6.22;;;5.55;;
23608;SDS011;11982;50.810;4.442;2022-07-23T15:33:00;8.57;;;5.65;;